Time;durP1;ratioP1;P1;durP2;ratioP2;P2;SDS_P1;SDS_P2;PMS_P1;PMS_P2;Temp;Humidity;BMP_temperature;BMP_pressure;BME280_temperature;BME280_humidity;BME280_pressure;Samples;Min_cycle;Max_cycle;Signal;HPM_P1;HPM_P2
2023/05/29 00:00:11;;;;;;;20.23;3.33;;;;;;;-143.48;79.01;118439.88;5017548;28;20077;-77
2023/05/29 00:02:37;;;;;;;22.10;3.80;;;;;;;-143.48;78.63;118439.88;5017622;28;20063;-77
2023/05/29 00:05:05;;;;;;;22.35;3.88;;;;;;;-143.48;78.58;118439.88;5035283;28;20021;-77
2023/05/29 00:07:32;;;;;;;19.63;2.97;;;;;;;-143.48;77.70;118439.88;5035373;28;20033;-77
2023/05/29 00:09:58;;;;;;;20.48;2.67;;;;;;;-143.48;77.72;118439.88;5017399;28;20025;-77
2023/05/29 00:12:23;;;;;;;16.60;2.67;;;;;;;-143.48;77.90;118439.88;5017779;28;20029;-77
2023/05/29 00:14:49;;;;;;;19.75;3.20;;;;;;;-143.48;78.23;118439.88;5017576;28;20022;-77
2023/05/29 00:17:15;;;;;;;22.85;3.40;;;;;;;-143.48;78.23;118439.88;5017412;28;20021;-77
2023/05/29 00:19:41;;;;;;;23.13;2.90;;;;;;;-143.48;77.41;118439.88;5017234;28;20034;-77
2023/05/29 00:22:06;;;;;;;20.88;2.83;;;;;;;-143.48;78.28;118439.88;5035125;28;20041;-77
2023/05/29 00:24:32;;;;;;;14.20;2.17;;;;;;;-143.48;77.01;118439.88;5035216;28;20385;-77
2023/05/29 00:26:57;;;;;;;16.27;2.90;;;;;;;-143.48;76.55;118439.88;5035254;28;20056;-77
2023/05/29 00:29:22;;;;;;;19.83;2.92;;;;;;;-143.48;77.14;118439.88;5017203;28;20021;-77
2023/05/29 00:31:48;;;;;;;21.52;3.65;;;;;;;-143.48;78.11;118439.88;5017064;28;20376;-77
2023/05/29 00:34:13;;;;;;;19.35;2.70;;;;;;;-143.48;76.75;118439.88;5017249;28;20366;-77
2023/05/29 00:36:38;;;;;;;12.75;2.95;;;;;;;-143.48;76.74;118439.88;5017023;28;20113;-77
2023/05/29 00:39:04;;;;;;;21.83;3.03;;;;;;;-143.48;76.33;118439.88;5017184;28;20116;-77
2023/05/29 00:41:29;;;;;;;19.90;3.05;;;;;;;-143.48;76.62;118439.88;5016531;28;20128;-77
2023/05/29 00:43:55;;;;;;;16.10;2.80;;;;;;;-143.48;76.41;118439.88;5034561;28;20025;-77
2023/05/29 00:46:20;;;;;;;25.23;3.08;;;;;;;-143.48;76.55;118439.88;5016867;28;20029;-77
2023/05/29 00:48:45;;;;;;;12.27;2.58;;;;;;;-143.48;76.22;118439.88;5016888;28;20025;-77
2023/05/29 00:51:12;;;;;;;13.77;2.50;;;;;;;-143.48;76.80;118439.88;5034512;28;20017;-77
2023/05/29 00:53:40;;;;;;;18.02;2.80;;;;;;;-143.48;76.81;118439.88;5034471;28;20024;-77
2023/05/29 00:56:06;;;;;;;13.70;2.90;;;;;;;-143.48;76.43;118439.88;5034448;28;20057;-77
2023/05/29 00:58:33;;;;;;;22.70;3.47;;;;;;;-143.48;76.20;118439.88;5016665;28;20424;-77
2023/05/29 01:00:58;;;;;;;15.43;2.85;;;;;;;-143.48;76.83;118439.88;5016328;28;20052;-77
2023/05/29 01:03:24;;;;;;;15.15;3.20;;;;;;;-143.48;76.51;118439.88;5016475;28;20026;-77
2023/05/29 01:05:51;;;;;;;14.75;2.80;;;;;;;-143.48;76.34;118439.88;5034216;28;20048;-77
2023/05/29 01:08:17;;;;;;;16.65;2.50;;;;;;;-143.48;76.90;118439.88;5016677;28;20037;-77
2023/05/29 01:10:42;;;;;;;16.92;2.80;;;;;;;-143.48;76.46;118439.88;5016424;28;20035;-77
2023/05/29 01:13:17;;;;;;;13.95;2.67;;;;;;;-143.48;76.33;118439.88;5034088;28;20116;-78
2023/05/29 01:15:56;;;;;;;16.10;2.85;;;;;;;-143.48;77.04;118439.88;5034669;28;20021;-78
2023/05/29 01:18:35;;;;;;;17.58;3.05;;;;;;;-143.48;77.56;118439.88;5017002;28;20057;-77
2023/05/29 01:21:01;;;;;;;19.67;3.40;;;;;;;-143.48;77.38;118439.88;5017271;28;20025;-77
2023/05/29 01:23:51;;;;;;;15.95;2.92;;;;;;;-143.48;77.84;118439.88;5034498;28;20055;-77
2023/05/29 01:26:25;;;;;;;14.65;1.92;;;;;;;-143.48;77.85;118439.88;5034492;28;20081;-77
2023/05/29 01:28:54;;;;;;;14.85;2.58;;;;;;;-143.48;77.54;118439.88;5017270;28;20025;-78
2023/05/29 01:31:23;;;;;;;20.08;2.28;;;;;;;-143.48;76.68;118439.88;5016940;28;20067;-78
2023/05/29 01:33:56;;;;;;;16.88;2.70;;;;;;;-143.48;78.00;118439.88;5016720;28;20472;-77
2023/05/29 01:36:22;;;;;;;24.15;3.33;;;;;;;-143.48;78.30;118439.88;5034611;28;20049;-78
2023/05/29 01:38:50;;;;;;;14.10;2.40;;;;;;;-143.48;78.43;118439.88;5034648;28;20096;-77
2023/05/29 01:41:16;;;;;;;23.50;3.42;;;;;;;-143.48;79.27;118439.88;5034236;28;20473;-77
2023/05/29 01:43:44;;;;;;;16.33;2.70;;;;;;;-143.48;79.23;118439.88;5016519;28;20093;-78
2023/05/29 01:46:11;;;;;;;18.25;2.80;;;;;;;-143.48;78.77;118439.88;5034060;28;20179;-78
2023/05/29 01:48:36;;;;;;;22.25;3.53;;;;;;;-143.48;78.85;118439.88;5034375;28;20025;-78
2023/05/29 01:51:01;;;;;;;17.00;3.03;;;;;;;-143.48;78.19;118439.88;5034156;28;20025;-77
2023/05/29 01:53:27;;;;;;;19.05;2.72;;;;;;;-143.48;78.96;118439.88;5015564;28;20020;-78
2023/05/29 01:55:52;;;;;;;16.58;2.90;;;;;;;-143.48;79.47;118439.88;5034003;28;20527;-78
2023/05/29 01:58:20;;;;;;;17.92;3.08;;;;;;;-143.48;79.29;118439.88;5033996;28;20025;-78
2023/05/29 02:00:45;;;;;;;15.32;2.47;;;;;;;-143.48;79.34;118439.88;5015972;28;20057;-78
2023/05/29 02:03:11;;;;;;;16.45;2.72;;;;;;;-143.48;78.62;118439.88;5033661;28;20030;-77
2023/05/29 02:05:36;;;;;;;16.17;3.10;;;;;;;-143.48;79.59;118439.88;5033730;28;20025;-78
2023/05/29 02:08:01;;;;;;;26.15;3.20;;;;;;;-143.48;79.61;118439.88;5033666;28;20025;-77
2023/05/29 02:10:27;;;;;;;19.77;3.13;;;;;;;-143.48;80.17;118439.88;5033643;28;20422;-78
2023/05/29 02:12:52;;;;;;;16.35;2.60;;;;;;;-143.48;80.50;118439.88;5015890;28;20017;-77
2023/05/29 02:15:17;;;;;;;22.58;2.72;;;;;;;-143.48;80.27;118439.88;5033501;28;20032;-77
2023/05/29 02:17:44;;;;;;;16.33;2.78;;;;;;;-143.48;80.11;118439.88;5033544;28;20419;-77
2023/05/29 02:20:10;;;;;;;14.70;2.25;;;;;;;-143.48;80.58;118439.88;5033391;28;20033;-77
2023/05/29 02:22:36;;;;;;;19.92;2.97;;;;;;;-143.48;80.53;118439.88;5015511;28;20036;-78
2023/05/29 02:25:01;;;;;;;15.43;2.70;;;;;;;-143.48;80.07;118439.88;5015723;28;20025;-78
2023/05/29 02:27:26;;;;;;;23.52;3.38;;;;;;;-143.48;80.42;118439.88;5033534;28;20029;-77
2023/05/29 02:29:52;;;;;;;18.67;2.70;;;;;;;-143.48;79.73;118439.88;5033452;28;20057;-78
2023/05/29 02:32:17;;;;;;;17.00;2.63;;;;;;;-143.48;80.67;118439.88;5016225;28;20112;-78
2023/05/29 02:34:42;;;;;;;19.23;2.45;;;;;;;-143.48;80.53;118439.88;5033757;28;20048;-77
2023/05/29 02:37:08;;;;;;;21.33;3.60;;;;;;;-143.48;81.64;118439.88;5016028;28;20477;-77
2023/05/29 02:39:33;;;;;;;17.48;2.67;;;;;;;-143.48;80.87;118439.88;5016304;28;20029;-77
2023/05/29 02:41:58;;;;;;;14.40;2.35;;;;;;;-143.48;80.85;118439.88;5033749;28;20435;-77
2023/05/29 02:44:24;;;;;;;13.23;2.58;;;;;;;-143.48;80.31;118439.88;5016076;28;20075;-78
2023/05/29 02:46:49;;;;;;;13.20;2.17;;;;;;;-143.48;79.68;118439.88;5033241;28;20382;-77
2023/05/29 02:49:14;;;;;;;17.90;2.90;;;;;;;-143.48;79.90;118439.88;5015229;28;20055;-76
2023/05/29 02:51:40;;;;;;;15.73;2.65;;;;;;;-143.48;79.38;118439.88;5032992;28;20061;-77
2023/05/29 02:54:05;;;;;;;12.75;3.20;;;;;;;-143.48;79.98;118439.88;5032699;28;20409;-76
2023/05/29 02:56:30;;;;;;;20.58;2.40;;;;;;;-143.48;79.49;118439.88;5014955;28;20022;-76
2023/05/29 02:58:55;;;;;;;19.10;2.58;;;;;;;-143.48;80.16;118439.88;5032732;28;20032;-77
2023/05/29 03:01:21;;;;;;;17.33;2.47;;;;;;;-143.48;80.55;118439.88;5032642;28;20041;-77
2023/05/29 03:03:46;;;;;;;16.67;2.65;;;;;;;-143.48;80.22;118439.88;4999490;28;20028;-77
2023/05/29 03:06:16;;;;;;;16.65;2.45;;;;;;;-143.48;79.77;118439.88;5002213;28;20029;-77
2023/05/29 03:08:44;;;;;;;20.45;2.67;;;;;;;-143.48;79.50;118439.88;5018721;28;20404;-77
2023/05/29 03:11:11;;;;;;;23.00;2.78;;;;;;;-143.48;80.26;118439.88;5018689;28;20063;-77
2023/05/29 03:13:37;;;;;;;17.25;2.65;;;;;;;-143.48;79.27;118439.88;5036386;28;20018;-77
2023/05/29 03:16:02;;;;;;;18.58;2.55;;;;;;;-143.48;78.95;118439.88;5018457;28;20022;-76
2023/05/29 03:18:28;;;;;;;17.40;2.70;;;;;;;-143.48;79.32;118439.88;5036279;28;20036;-76
2023/05/29 03:20:53;;;;;;;15.82;2.30;;;;;;;-143.48;80.17;118439.88;5018321;28;20025;-76
2023/05/29 03:23:19;;;;;;;16.58;3.30;;;;;;;-143.48;79.34;118439.88;5018317;28;20025;-76
2023/05/29 03:25:44;;;;;;;19.20;2.80;;;;;;;-143.48;80.19;118439.88;5036132;28;20502;-76
2023/05/29 03:28:10;;;;;;;16.13;2.67;;;;;;;-143.48;79.21;118439.88;5035945;28;20061;-76
2023/05/29 03:30:35;;;;;;;13.93;2.47;;;;;;;-143.48;80.05;118439.88;5036084;28;20124;-77
2023/05/29 03:33:03;;;;;;;15.35;2.60;;;;;;;-143.48;78.64;118439.88;5018149;28;20021;-77
2023/05/29 03:35:29;;;;;;;24.73;3.47;;;;;;;-143.48;77.94;118439.88;5035873;28;20075;-77
2023/05/29 03:37:54;;;;;;;13.98;2.38;;;;;;;-143.48;78.16;118439.88;5018029;28;20392;-77
2023/05/29 03:40:20;;;;;;;19.42;3.45;;;;;;;-143.48;78.98;118439.88;5018053;28;20052;-77
2023/05/29 03:42:46;;;;;;;17.13;2.33;;;;;;;-143.48;78.88;118439.88;5017982;28;20022;-77
2023/05/29 03:45:11;;;;;;;16.10;2.08;;;;;;;-143.48;79.81;118439.88;5035656;28;20025;-77
2023/05/29 03:47:36;;;;;;;16.95;2.50;;;;;;;-143.48;79.74;118439.88;5018074;28;20472;-77
2023/05/29 03:50:02;;;;;;;15.18;2.38;;;;;;;-143.48;79.46;118439.88;5035568;28;20021;-77
2023/05/29 03:52:27;;;;;;;22.65;2.90;;;;;;;-143.48;78.41;118439.88;5035608;28;20053;-77
2023/05/29 03:54:52;;;;;;;14.60;2.10;;;;;;;-143.48;79.38;118439.88;5017810;28;20056;-77
2023/05/29 03:57:18;;;;;;;16.90;3.35;;;;;;;-143.48;79.04;118439.88;5035410;28;20366;-77
2023/05/29 03:59:43;;;;;;;17.23;2.55;;;;;;;-143.48;78.61;118439.88;5017505;28;20061;-76
2023/05/29 04:02:08;;;;;;;18.42;2.72;;;;;;;-143.48;78.22;118439.88;5017636;28;20503;-76
2023/05/29 04:04:33;;;;;;;22.85;3.50;;;;;;;-143.48;77.55;118439.88;5035331;28;20113;-76
2023/05/29 04:06:59;;;;;;;17.58;2.95;;;;;;;-143.48;78.16;118439.88;5035320;28;20057;-76
2023/05/29 04:09:24;;;;;;;15.93;2.88;;;;;;;-143.48;78.52;118439.88;5035374;28;20100;-76
2023/05/29 04:11:51;;;;;;;16.25;2.70;;;;;;;-143.48;77.79;118439.88;5035228;28;20033;-76
2023/05/29 04:14:17;;;;;;;16.58;2.47;;;;;;;-143.48;76.97;118439.88;5017469;28;20025;-77
2023/05/29 04:16:42;;;;;;;15.07;2.50;;;;;;;-143.48;76.88;118439.88;5016520;28;20381;-77
2023/05/29 04:19:07;;;;;;;17.55;2.63;;;;;;;-143.48;77.09;118439.88;5017301;28;20424;-77
2023/05/29 04:21:33;;;;;;;16.35;2.55;;;;;;;-143.48;77.16;118439.88;5035019;28;20075;-76
2023/05/29 04:23:59;;;;;;;16.52;2.40;;;;;;;-143.48;77.25;118439.88;5034994;28;20021;-77
2023/05/29 04:26:25;;;;;;;14.63;2.70;;;;;;;-143.48;76.50;118439.88;5034955;28;20021;-77
2023/05/29 04:28:56;;;;;;;15.05;2.67;;;;;;;-143.48;76.95;118439.88;5035074;28;20032;-77
2023/05/29 04:31:25;;;;;;;14.30;2.40;;;;;;;-143.48;76.25;118439.88;5035237;28;20056;-77
2023/05/29 04:33:54;;;;;;;20.77;2.53;;;;;;;-143.48;75.77;118439.88;5034985;28;20018;-78
2023/05/29 04:36:25;;;;;;;17.25;3.22;;;;;;;-143.48;76.33;118439.88;5017409;28;20026;-77
2023/05/29 04:38:51;;;;;;;19.30;2.38;;;;;;;-143.48;76.77;118439.88;5017473;28;20030;-77
2023/05/29 04:41:16;;;;;;;15.93;2.33;;;;;;;-143.48;75.73;118439.88;5016844;28;20035;-77
2023/05/29 04:43:41;;;;;;;23.85;3.20;;;;;;;-143.48;75.71;118439.88;5034467;28;20022;-77
2023/05/29 04:46:12;;;;;;;19.42;2.88;;;;;;;-143.48;75.27;118439.88;5034566;28;20056;-77
2023/05/29 04:48:40;;;;;;;26.90;3.08;;;;;;;-143.48;74.73;118439.88;5034606;28;20029;-77
2023/05/29 04:51:06;;;;;;;18.25;3.08;;;;;;;-143.48;74.20;118439.88;5034678;28;20487;-77
2023/05/29 04:53:31;;;;;;;20.10;3.13;;;;;;;-143.48;74.27;118439.88;5016868;28;20018;-77
2023/05/29 04:55:56;;;;;;;19.58;2.80;;;;;;;-143.48;72.72;118439.88;5016639;28;20539;-77
2023/05/29 04:58:25;;;;;;;13.55;2.47;;;;;;;-143.48;73.65;118439.88;5016803;28;20025;-77
2023/05/29 05:00:51;;;;;;;12.60;2.70;;;;;;;-143.48;72.37;118439.88;5034204;28;20057;-78
2023/05/29 05:03:16;;;;;;;15.35;2.42;;;;;;;-143.48;73.11;118439.88;5034322;28;20072;-78
2023/05/29 05:05:43;;;;;;;20.42;2.78;;;;;;;-143.48;73.30;118439.88;5016604;28;20108;-78
2023/05/29 05:08:09;;;;;;;14.00;2.53;;;;;;;-143.48;72.08;118439.88;5016734;28;20030;-77
2023/05/29 05:10:35;;;;;;;21.15;3.13;;;;;;;-143.48;71.33;118439.88;5034542;28;20500;-78
2023/05/29 05:13:02;;;;;;;18.73;2.72;;;;;;;-143.48;70.40;118439.88;5016722;28;20164;-77
2023/05/29 05:15:28;;;;;;;16.58;2.72;;;;;;;-143.48;71.39;118439.88;5016409;28;20025;-77
2023/05/29 05:17:53;;;;;;;17.52;2.92;;;;;;;-143.48;71.13;118439.88;5016380;28;20036;-77
2023/05/29 05:20:18;;;;;;;18.20;3.00;;;;;;;-143.48;71.00;118439.88;5016521;28;20476;-78
2023/05/29 05:22:44;;;;;;;19.33;2.95;;;;;;;-143.48;69.89;118439.88;5016441;28;20026;-78
2023/05/29 05:25:10;;;;;;;25.83;2.70;;;;;;;-143.48;70.15;118439.88;5016392;28;20048;-78
2023/05/29 05:27:35;;;;;;;16.98;3.05;;;;;;;-143.48;69.07;118439.88;5016339;28;20544;-78
2023/05/29 05:30:02;;;;;;;21.85;2.80;;;;;;;-143.48;68.29;118439.88;5016416;28;20072;-77
2023/05/29 05:32:28;;;;;;;14.32;2.85;;;;;;;-143.48;69.67;118439.88;5034477;28;20419;-78
2023/05/29 05:34:53;;;;;;;18.05;2.78;;;;;;;-143.48;68.58;118439.88;5034314;28;20025;-78
2023/05/29 05:37:18;;;;;;;11.25;2.35;;;;;;;-143.48;68.75;118439.88;5034110;28;20033;-77
2023/05/29 05:39:44;;;;;;;19.33;3.10;;;;;;;-143.48;68.94;118439.88;5033761;28;20022;-78
2023/05/29 05:42:09;;;;;;;19.77;3.38;;;;;;;-143.48;69.02;118439.88;5016557;28;20120;-78
2023/05/29 05:44:34;;;;;;;18.52;3.03;;;;;;;-143.48;65.53;118439.88;5034012;28;20021;-78
2023/05/29 05:46:59;;;;;;;15.50;2.70;;;;;;;-143.48;54.46;118439.88;5016843;28;20040;-78
2023/05/29 05:49:25;;;;;;;18.17;2.80;;;;;;;-143.48;52.66;118439.88;5034664;28;20488;-78
2023/05/29 05:51:50;;;;;;;17.58;3.05;;;;;;;-143.48;51.30;118439.88;5016600;28;20034;-78
2023/05/29 05:54:16;;;;;;;16.20;3.08;;;;;;;-143.48;50.23;118439.88;5016880;28;20469;-78
2023/05/29 05:56:41;;;;;;;13.30;3.42;;;;;;;-143.48;49.31;118439.88;5016699;28;20026;-78
2023/05/29 05:59:06;;;;;;;11.50;3.00;;;;;;;-143.48;46.46;118439.88;5017282;28;20026;-78
2023/05/29 06:01:32;;;;;;;15.07;3.00;;;;;;;-143.48;47.25;118439.88;5016500;28;20041;-78
2023/05/29 06:03:58;;;;;;;14.80;2.88;;;;;;;-143.48;46.52;118439.88;5016962;28;20396;-78
2023/05/29 06:06:23;;;;;;;16.00;2.92;;;;;;;-143.48;44.54;118439.88;5034976;28;20025;-78
2023/05/29 06:08:49;;;;;;;13.32;3.20;;;;;;;-143.48;44.99;118439.88;5017757;28;20083;-78
2023/05/29 06:11:15;;;;;;;15.48;2.88;;;;;;;-143.48;43.54;118439.88;5017639;28;20040;-78
2023/05/29 06:13:40;;;;;;;12.30;2.80;;;;;;;-143.48;43.87;118439.88;5034885;28;20093;-78
2023/05/29 06:16:05;;;;;;;18.15;2.85;;;;;;;-143.48;44.93;118439.88;5034710;28;20465;-78
2023/05/29 06:18:31;;;;;;;14.18;3.30;;;;;;;-143.48;44.45;118439.88;5034630;28;20400;-78
2023/05/29 06:20:56;;;;;;;14.68;3.22;;;;;;;-143.48;43.11;118439.88;5017203;28;20021;-78
2023/05/29 06:23:22;;;;;;;13.13;2.90;;;;;;;-143.48;42.20;118439.88;5034456;28;20060;-78
2023/05/29 06:25:47;;;;;;;13.98;2.53;;;;;;;-143.48;43.08;118439.88;5017194;28;20469;-78
2023/05/29 06:28:13;;;;;;;13.77;3.22;;;;;;;-143.48;45.45;118439.88;5033574;28;20075;-77
2023/05/29 06:30:38;;;;;;;17.25;3.22;;;;;;;-143.48;44.04;118439.88;5035033;28;20121;-78
2023/05/29 06:33:04;;;;;;;16.08;3.00;;;;;;;-143.48;46.13;118439.88;5033273;28;20092;-78
2023/05/29 06:35:29;;;;;;;16.42;2.67;;;;;;;-143.48;45.05;118439.88;5033495;28;20030;-78
2023/05/29 06:37:55;;;;;;;17.23;2.90;;;;;;;-143.48;45.70;118439.88;5015954;28;20035;-77
2023/05/29 06:40:20;;;;;;;13.95;2.47;;;;;;;-143.48;47.89;118439.88;5037456;28;20031;-77
2023/05/29 06:42:45;;;;;;;20.00;2.72;;;;;;;-143.48;45.07;118439.88;5019730;28;20448;-77
2023/05/29 06:45:14;;;;;;;17.80;3.20;;;;;;;-143.48;46.62;118439.88;5019771;28;20393;-77
2023/05/29 06:47:41;;;;;;;19.40;2.95;;;;;;;-143.48;47.62;118439.88;5019785;28;20022;-77
2023/05/29 06:50:07;;;;;;;14.48;2.53;;;;;;;-143.48;45.80;118439.88;5037470;28;20032;-77
2023/05/29 06:52:33;;;;;;;9.73;2.40;;;;;;;-143.48;44.75;118439.88;5019786;28;20025;-78
2023/05/29 06:54:58;;;;;;;18.13;2.90;;;;;;;-143.48;46.81;118439.88;5037216;28;20496;-77
2023/05/29 06:57:23;;;;;;;16.40;2.72;;;;;;;-143.48;45.45;118439.88;5037022;28;20122;-78
2023/05/29 06:59:49;;;;;;;15.98;2.63;;;;;;;-143.48;45.25;118439.88;5019251;28;20053;-78
2023/05/29 07:02:14;;;;;;;16.05;2.80;;;;;;;-143.48;45.85;118439.88;5019372;28;20079;-77
2023/05/29 07:04:39;;;;;;;14.20;2.53;;;;;;;-143.48;45.04;118439.88;5019325;28;20021;-77
2023/05/29 07:07:04;;;;;;;13.27;2.42;;;;;;;-143.48;47.00;118439.88;5019330;28;20029;-78
2023/05/29 07:09:30;;;;;;;19.58;3.08;;;;;;;-143.48;46.80;118439.88;5019120;28;20037;-78
2023/05/29 07:11:55;;;;;;;14.70;2.58;;;;;;;-143.48;45.92;118439.88;5037002;28;20445;-78
2023/05/29 07:14:20;;;;;;;11.60;2.50;;;;;;;-143.48;45.66;118439.88;5037020;28;20112;-78
2023/05/29 07:16:46;;;;;;;16.17;3.00;;;;;;;-143.48;46.87;118439.88;5019185;28;20029;-77
2023/05/29 07:19:13;;;;;;;16.40;2.75;;;;;;;-143.48;46.73;118439.88;5036874;28;20022;-78
2023/05/29 07:21:38;;;;;;;13.20;2.60;;;;;;;-143.48;47.28;118439.88;5036721;28;20021;-78
2023/05/29 07:24:04;;;;;;;16.40;3.00;;;;;;;-143.48;46.00;118439.88;5018712;28;20097;-78
2023/05/29 07:26:30;;;;;;;13.95;2.55;;;;;;;-143.48;46.26;118439.88;5018489;28;20477;-77
2023/05/29 07:28:56;;;;;;;13.43;2.58;;;;;;;-143.48;45.18;118439.88;5018573;28;20408;-77
2023/05/29 07:31:21;;;;;;;15.43;3.05;;;;;;;-143.48;43.48;118439.88;5036276;28;20051;-77
2023/05/29 07:33:47;;;;;;;10.40;2.40;;;;;;;-143.48;44.18;118439.88;5036336;28;20024;-78
2023/05/29 07:36:12;;;;;;;16.58;2.38;;;;;;;-143.48;43.47;118439.88;5018691;28;20465;-78
2023/05/29 07:38:37;;;;;;;16.25;2.60;;;;;;;-143.48;44.25;118439.88;5018413;28;20021;-78
2023/05/29 07:41:03;;;;;;;12.68;2.90;;;;;;;-143.48;43.47;118439.88;5018290;28;20507;-77
2023/05/29 07:43:28;;;;;;;12.63;2.50;;;;;;;-143.48;44.58;118439.88;5035925;28;20103;-78
2023/05/29 07:45:53;;;;;;;16.10;2.75;;;;;;;-143.48;44.44;118439.88;5018626;28;20472;-77
2023/05/29 07:48:19;;;;;;;14.95;2.70;;;;;;;-143.48;46.02;118439.88;5036055;28;20029;-77
2023/05/29 07:50:44;;;;;;;13.38;2.55;;;;;;;-143.48;45.67;118439.88;5017247;28;20091;-77
2023/05/29 07:53:09;;;;;;;11.98;2.58;;;;;;;-143.48;44.17;118439.88;5018532;28;20488;-78
2023/05/29 07:55:35;;;;;;;11.13;2.80;;;;;;;-143.48;43.21;118439.88;5018248;28;20385;-77
2023/05/29 07:58:01;;;;;;;13.45;3.22;;;;;;;-143.48;44.12;118439.88;5036039;28;20420;-77
2023/05/29 08:00:28;;;;;;;12.13;2.35;;;;;;;-143.48;43.05;118439.88;5017662;28;20049;-78
2023/05/29 08:02:53;;;;;;;15.45;3.03;;;;;;;-143.48;41.44;118439.88;5018026;28;20021;-77
2023/05/29 08:05:19;;;;;;;11.35;2.40;;;;;;;-143.48;43.43;118439.88;5018197;28;20043;-78
2023/05/29 08:07:44;;;;;;;10.57;2.72;;;;;;;-143.48;42.52;118439.88;5035755;28;20029;-77
2023/05/29 08:10:10;;;;;;;10.73;2.78;;;;;;;-143.48;44.77;118439.88;5035822;28;20099;-77
2023/05/29 08:12:35;;;;;;;15.90;3.08;;;;;;;-143.48;42.09;118439.88;5018358;28;20025;-77
2023/05/29 08:15:02;;;;;;;12.02;2.80;;;;;;;-143.48;41.33;118439.88;5035665;28;20032;-77
2023/05/29 08:17:27;;;;;;;9.88;2.63;;;;;;;-143.48;43.46;118439.88;5018023;28;20083;-77
2023/05/29 08:19:53;;;;;;;11.50;2.50;;;;;;;-143.48;43.44;118439.88;5017771;28;20473;-78
2023/05/29 08:22:18;;;;;;;12.68;2.60;;;;;;;-143.48;44.42;118439.88;5017880;28;20032;-77
2023/05/29 08:24:44;;;;;;;19.77;2.85;;;;;;;-143.48;43.73;118439.88;5035149;28;20037;-77
2023/05/29 08:27:09;;;;;;;13.20;2.80;;;;;;;-143.48;44.28;118439.88;5035295;28;20033;-77
2023/05/29 08:29:36;;;;;;;12.48;2.70;;;;;;;-143.48;42.95;118439.88;5017487;28;20030;-77
2023/05/29 08:32:02;;;;;;;13.15;3.05;;;;;;;-143.48;42.77;118439.88;5017397;28;20029;-77
2023/05/29 08:34:27;;;;;;;15.73;4.00;;;;;;;-143.48;42.66;118439.88;5017390;28;20373;-78
2023/05/29 08:36:54;;;;;;;13.43;2.80;;;;;;;-143.48;42.64;118439.88;5035091;28;20028;-77
2023/05/29 08:39:20;;;;;;;11.50;2.85;;;;;;;-143.48;42.27;118439.88;5017487;28;20103;-77
2023/05/29 08:42:10;;;;;;;17.38;2.63;;;;;;;-143.48;41.27;118439.88;5017173;28;20021;-77
2023/05/29 08:44:39;;;;;;;14.57;2.90;;;;;;;-143.48;41.53;118439.88;5017667;28;20087;-77
2023/05/29 08:47:06;;;;;;;9.05;2.35;;;;;;;-143.48;41.39;118439.88;5017313;28;20091;-77
2023/05/29 08:49:41;;;;;;;14.52;2.85;;;;;;;-143.48;41.28;118439.88;5017060;28;20502;-78
2023/05/29 08:52:16;;;;;;;11.27;2.70;;;;;;;-143.48;41.81;118439.88;5034711;28;20048;-77
2023/05/29 08:54:43;;;;;;;15.57;2.30;;;;;;;-143.48;42.18;118439.88;5016953;28;20476;-77
2023/05/29 08:57:09;;;;;;;13.40;2.50;;;;;;;-143.48;42.04;118439.88;5016808;28;20021;-77
2023/05/29 08:59:36;;;;;;;10.20;2.42;;;;;;;-143.48;41.12;118439.88;5034466;28;20107;-77
2023/05/29 09:02:02;;;;;;;11.45;2.30;;;;;;;-143.48;41.47;118439.88;5016529;28;20519;-77
2023/05/29 09:04:30;;;;;;;9.35;2.40;;;;;;;-143.48;40.70;118439.88;5034798;28;20057;-78
2023/05/29 09:06:55;;;;;;;10.60;2.67;;;;;;;-143.48;40.35;118439.88;5016701;28;20021;-77
2023/05/29 09:09:21;;;;;;;15.70;2.92;;;;;;;-143.48;41.51;118439.88;5034782;28;20523;-77
2023/05/29 09:11:46;;;;;;;11.40;2.63;;;;;;;-143.48;39.95;118439.88;5034658;28;20112;-78
2023/05/29 09:14:42;;;;;;;10.75;2.55;;;;;;;-143.48;40.61;118439.88;5034595;28;20354;-78
2023/05/29 09:17:08;;;;;;;12.48;2.33;;;;;;;-143.48;40.10;118439.88;5021898;28;20038;-78
2023/05/29 09:19:35;;;;;;;9.60;2.60;;;;;;;-143.48;40.70;118439.88;5034285;28;20026;-77
2023/05/29 09:22:03;;;;;;;10.77;2.70;;;;;;;-143.48;39.28;118439.88;5034365;28;20030;-77
2023/05/29 09:24:29;;;;;;;11.35;2.60;;;;;;;-143.48;40.97;118439.88;5034166;28;20064;-77
2023/05/29 09:26:56;;;;;;;10.40;3.00;;;;;;;-143.48;39.76;118439.88;5016234;28;20051;-78
2023/05/29 09:29:22;;;;;;;10.70;2.75;;;;;;;-143.48;39.50;118439.88;5016511;28;20022;-76
2023/05/29 09:31:47;;;;;;;10.65;2.42;;;;;;;-143.48;40.05;118439.88;5016444;28;20362;-77
2023/05/29 09:34:12;;;;;;;12.23;2.53;;;;;;;-143.48;39.51;118439.88;5034038;28;20018;-77
2023/05/29 09:36:38;;;;;;;10.65;2.60;;;;;;;-143.48;39.06;118439.88;5034125;28;20029;-77
2023/05/29 09:39:04;;;;;;;13.88;2.65;;;;;;;-143.48;38.63;118439.88;5016135;28;20025;-77
2023/05/29 09:41:31;;;;;;;14.20;3.08;;;;;;;-143.48;39.72;118439.88;5033499;28;20531;-77
2023/05/29 09:43:59;;;;;;;15.25;2.80;;;;;;;-143.48;40.21;118439.88;5015937;28;20039;-78
2023/05/29 09:46:24;;;;;;;11.18;2.63;;;;;;;-143.48;40.10;118439.88;5016179;28;20033;-77
2023/05/29 09:48:50;;;;;;;10.70;2.60;;;;;;;-143.48;38.98;118439.88;5033555;28;20048;-77
2023/05/29 09:51:21;;;;;;;9.57;2.42;;;;;;;-143.48;39.72;118439.88;5016461;28;20025;-78
2023/05/29 09:53:48;;;;;;;11.95;2.60;;;;;;;-143.48;39.28;118439.88;5033842;28;20032;-77
2023/05/29 09:56:17;;;;;;;13.90;2.83;;;;;;;-143.48;41.06;118439.88;5015906;28;20021;-77
2023/05/29 09:58:45;;;;;;;10.50;2.13;;;;;;;-143.48;39.11;118439.88;5015702;28;20388;-77
2023/05/29 10:01:12;;;;;;;15.90;2.70;;;;;;;-143.48;40.27;118439.88;5015879;28;20049;-77
2023/05/29 10:03:38;;;;;;;16.38;3.13;;;;;;;-143.48;39.96;118439.88;5033357;28;20042;-76
2023/05/29 10:06:05;;;;;;;11.52;2.70;;;;;;;-143.48;38.64;118439.88;5015903;28;20025;-77
2023/05/29 10:08:36;;;;;;;10.93;2.80;;;;;;;-143.48;40.05;118439.88;5015972;28;20481;-77
2023/05/29 10:11:08;;;;;;;11.82;2.60;;;;;;;-143.48;39.42;118439.88;5033507;28;20032;-78
2023/05/29 10:13:37;;;;;;;9.77;2.60;;;;;;;-143.48;39.75;118439.88;5015000;28;20017;-77
2023/05/29 10:16:06;;;;;;;9.82;2.97;;;;;;;-143.48;38.71;118439.88;5016066;28;20837;-77
2023/05/29 10:18:37;;;;;;;12.15;3.10;;;;;;;-143.48;39.05;118439.88;5033071;28;20029;-77
2023/05/29 10:21:03;;;;;;;14.77;3.00;;;;;;;-143.48;39.50;118439.88;5015688;28;20500;-77
2023/05/29 10:23:30;;;;;;;14.90;2.70;;;;;;;-143.48;38.71;118439.88;5033298;28;20393;-77
2023/05/29 10:26:11;;;;;;;12.13;3.10;;;;;;;-143.48;39.23;118439.88;5015719;28;20476;-77
2023/05/29 10:28:41;;;;;;;15.80;3.13;;;;;;;-143.48;40.81;118439.88;5033484;28;20025;-78
2023/05/29 10:31:17;;;;;;;10.50;3.05;;;;;;;-143.48;38.51;118439.88;5033069;28;20366;-77
2023/05/29 10:33:50;;;;;;;15.75;3.28;;;;;;;-143.48;39.17;118439.88;4999513;28;20476;-77
2023/05/29 10:36:26;;;;;;;15.82;3.00;;;;;;;-143.48;37.93;118439.88;5033192;28;20032;-77
2023/05/29 10:38:52;;;;;;;14.13;3.55;;;;;;;-143.48;38.65;118439.88;5033210;28;20040;-77
2023/05/29 10:41:26;;;;;;;11.88;3.13;;;;;;;-143.48;38.45;118439.88;5015404;28;20032;-77
2023/05/29 10:43:56;;;;;;;11.98;3.17;;;;;;;-143.48;38.92;118439.88;5033071;28;20104;-77
2023/05/29 10:46:44;;;;;;;15.15;3.53;;;;;;;-143.48;39.91;118439.88;5015418;28;20377;-77
2023/05/29 10:49:20;;;;;;;14.30;3.50;;;;;;;-143.48;40.38;118439.88;5015409;28;20032;-77
2023/05/29 10:51:46;;;;;;;16.42;3.58;;;;;;;-143.48;41.03;118439.88;5015347;28;20427;-77
2023/05/29 10:54:13;;;;;;;13.40;3.50;;;;;;;-143.48;40.98;118439.88;5015332;28;20026;-77
2023/05/29 10:56:41;;;;;;;15.77;3.45;;;;;;;-143.48;40.60;118439.88;5015153;28;20021;-77
2023/05/29 10:59:08;;;;;;;15.45;3.70;;;;;;;-143.48;41.28;118439.88;5032749;28;20025;-77